Time;durP1;ratioP1;P1;durP2;ratioP2;P2;SDS_P1;SDS_P2;PMS_P1;PMS_P2;Temp;Humidity;BMP_temperature;BMP_pressure;BME280_temperature;BME280_humidity;BME280_pressure;Samples;Min_cycle;Max_cycle;Signal;HPM_P1;HPM_P2
2022/08/02 00:01:16;;;;;;;1.40;1.30;;;;;;;;;;5027002;28;20112;-81
2022/08/02 00:03:41;;;;;;;3.25;1.45;;;;;;;;;;5027030;28;20036;-82
2022/08/02 00:06:06;;;;;;;1.73;1.55;;;;;;;;;;5028224;28;20021;-82
2022/08/02 00:08:32;;;;;;;2.33;1.80;;;;;;;;;;5024440;28;20075;-82
2022/08/02 00:10:57;;;;;;;1.33;1.23;;;;;;;;;;5024489;28;20085;-82
2022/08/02 00:13:23;;;;;;;2.40;1.65;;;;;;;;;;5025682;28;20495;-83
2022/08/02 00:15:48;;;;;;;2.72;1.52;;;;;;;;;;5026075;28;20021;-80
2022/08/02 00:18:14;;;;;;;1.95;1.67;;;;;;;;;;5019203;28;20554;-84
2022/08/02 00:20:39;;;;;;;2.35;1.50;;;;;;;;;;5018000;28;20029;-82
2022/08/02 00:23:04;;;;;;;1.15;1.10;;;;;;;;;;5003058;28;20048;-81
2022/08/02 00:25:30;;;;;;;2.67;1.40;;;;;;;;;;5016134;28;20114;-83
2022/08/02 00:27:55;;;;;;;2.65;1.77;;;;;;;;;;5013159;28;20083;-83
2022/08/02 00:30:20;;;;;;;2.70;1.70;;;;;;;;;;5014673;28;20032;-80
2022/08/02 00:32:46;;;;;;;1.90;1.60;;;;;;;;;;5014754;28;20025;-82
2022/08/02 00:35:11;;;;;;;4.22;1.73;;;;;;;;;;4997244;28;20041;-82
2022/08/02 00:37:41;;;;;;;1.50;1.40;;;;;;;;;;5011089;28;20026;-81
2022/08/02 00:40:08;;;;;;;1.60;1.40;;;;;;;;;;5017453;28;20028;-82
2022/08/02 00:42:33;;;;;;;1.83;1.48;;;;;;;;;;5049701;28;20311;-82
2022/08/02 00:44:59;;;;;;;1.95;1.70;;;;;;;;;;5058762;28;20027;-83
2022/08/02 00:47:24;;;;;;;4.25;1.60;;;;;;;;;;5054706;28;20116;-82
2022/08/02 00:49:49;;;;;;;2.53;1.48;;;;;;;;;;5038523;28;20024;-81
2022/08/02 00:52:15;;;;;;;1.75;1.40;;;;;;;;;;5043260;28;20051;-81
2022/08/02 00:54:40;;;;;;;1.77;1.63;;;;;;;;;;5011216;28;20093;-81
2022/08/02 00:57:06;;;;;;;2.10;1.55;;;;;;;;;;5012456;28;20520;-82
2022/08/02 00:59:31;;;;;;;2.33;1.95;;;;;;;;;;5027043;28;20094;-81
2022/08/02 01:01:56;;;;;;;1.48;1.38;;;;;;;;;;5036835;28;20034;-81
2022/08/02 01:04:22;;;;;;;1.73;1.55;;;;;;;;;;5042336;28;20041;-80
2022/08/02 01:06:47;;;;;;;2.17;1.52;;;;;;;;;;5042663;28;20029;-80
2022/08/02 01:09:12;;;;;;;3.33;1.80;;;;;;;;;;5053553;28;20078;-81
2022/08/02 01:11:38;;;;;;;4.72;2.15;;;;;;;;;;5059536;28;20037;-82
2022/08/02 01:14:13;;;;;;;3.67;1.60;;;;;;;;;;5038559;28;20038;-80
2022/08/02 01:16:47;;;;;;;1.90;1.67;;;;;;;;;;5048625;28;20049;-81
2022/08/02 01:19:33;;;;;;;2.58;1.80;;;;;;;;;;5024089;28;20053;-81
2022/08/02 01:22:23;;;;;;;1.75;1.63;;;;;;;;;;5028943;28;20049;-81
2022/08/02 01:25:02;;;;;;;1.58;1.35;;;;;;;;;;5043020;28;20059;-81
2022/08/02 01:28:01;;;;;;;4.28;1.70;;;;;;;;;;5038329;28;20025;-80
2022/08/02 01:30:30;;;;;;;1.48;1.38;;;;;;;;;;5037377;28;20029;-81
2022/08/02 01:32:59;;;;;;;3.03;2.00;;;;;;;;;;5040570;28;20025;-81
2022/08/02 01:35:32;;;;;;;1.52;1.42;;;;;;;;;;5042119;28;20032;-81
2022/08/02 01:38:06;;;;;;;1.60;1.50;;;;;;;;;;5036415;28;20112;-81
2022/08/02 01:40:34;;;;;;;4.45;1.83;;;;;;;;;;5024281;28;20029;-81
2022/08/02 01:43:01;;;;;;;2.17;1.73;;;;;;;;;;5050907;28;20361;-80
2022/08/02 01:45:31;;;;;;;3.88;1.52;;;;;;;;;;5036324;28;20358;-83
2022/08/02 01:47:59;;;;;;;4.13;2.08;;;;;;;;;;5037185;28;20036;-84
2022/08/02 01:50:28;;;;;;;3.25;1.80;;;;;;;;;;5047334;28;20048;-82
2022/08/02 01:52:56;;;;;;;1.83;1.60;;;;;;;;;;5050233;28;20041;-82
2022/08/02 01:55:27;;;;;;;4.07;1.65;;;;;;;;;;5029563;28;20026;-82
2022/08/02 01:57:56;;;;;;;3.53;1.48;;;;;;;;;;5035497;28;20400;-82
2022/08/02 02:00:24;;;;;;;3.75;1.95;;;;;;;;;;5042595;28;20029;-82
2022/08/02 02:02:52;;;;;;;3.47;1.50;;;;;;;;;;5046436;28;20174;-83
2022/08/02 02:05:19;;;;;;;2.88;1.92;;;;;;;;;;5040273;28;20036;-82
2022/08/02 02:07:49;;;;;;;3.50;2.00;;;;;;;;;;5033690;28;20041;-82
2022/08/02 02:10:21;;;;;;;3.17;1.90;;;;;;;;;;5048572;28;20032;-81
2022/08/02 02:12:50;;;;;;;2.17;1.80;;;;;;;;;;5051065;28;20404;-82
2022/08/02 02:15:16;;;;;;;1.45;1.35;;;;;;;;;;5027214;28;20491;-81
2022/08/02 02:17:46;;;;;;;2.75;1.90;;;;;;;;;;5055291;28;20029;-82
2022/08/02 02:20:14;;;;;;;3.17;1.75;;;;;;;;;;5042831;28;20025;-81
2022/08/02 02:22:39;;;;;;;1.63;1.52;;;;;;;;;;5034244;28;20081;-81
2022/08/02 02:25:10;;;;;;;2.80;1.85;;;;;;;;;;5053253;28;20036;-82
2022/08/02 02:27:38;;;;;;;7.28;2.15;;;;;;;;;;5022203;28;20064;-81
2022/08/02 02:30:05;;;;;;;7.15;2.20;;;;;;;;;;5033783;28;20109;-82
2022/08/02 02:32:32;;;;;;;1.83;1.60;;;;;;;;;;5052673;28;20029;-82
2022/08/02 02:35:00;;;;;;;3.60;2.00;;;;;;;;;;5050016;28;20478;-81
2022/08/02 02:37:27;;;;;;;2.35;1.92;;;;;;;;;;5038268;28;20052;-79
2022/08/02 02:39:55;;;;;;;4.75;2.33;;;;;;;;;;5036279;28;20029;-83
2022/08/02 02:42:25;;;;;;;4.35;1.85;;;;;;;;;;5058918;28;20107;-84
2022/08/02 02:44:51;;;;;;;2.03;1.83;;;;;;;;;;5039648;28;20024;-81
2022/08/02 02:47:19;;;;;;;4.13;1.92;;;;;;;;;;5037015;28;20483;-83
2022/08/02 02:49:48;;;;;;;2.08;1.50;;;;;;;;;;5043528;28;20536;-82
2022/08/02 02:52:16;;;;;;;2.63;1.80;;;;;;;;;;5043817;28;20036;-81
2022/08/02 02:54:44;;;;;;;2.42;1.58;;;;;;;;;;5024130;28;20040;-82
2022/08/02 02:57:10;;;;;;;3.40;1.85;;;;;;;;;;5031428;28;20083;-81
2022/08/02 02:59:37;;;;;;;2.67;1.65;;;;;;;;;;5036309;28;20089;-81
2022/08/02 03:02:04;;;;;;;4.47;1.67;;;;;;;;;;5045219;28;20100;-82
2022/08/02 03:04:30;;;;;;;1.70;1.60;;;;;;;;;;5037544;28;20029;-82
2022/08/02 03:06:55;;;;;;;5.63;2.00;;;;;;;;;;5035185;28;20418;-81
2022/08/02 03:09:21;;;;;;;6.45;1.60;;;;;;;;;;5039345;28;20163;-81
2022/08/02 03:11:47;;;;;;;2.40;1.60;;;;;;;;;;5052730;28;20021;-81
2022/08/02 03:14:12;;;;;;;2.30;1.83;;;;;;;;;;5041589;28;20025;-81
2022/08/02 03:16:46;;;;;;;2.47;1.52;;;;;;;;;;5031281;28;20574;-82
2022/08/02 03:19:12;;;;;;;4.07;1.70;;;;;;;;;;5046431;28;20025;-82
2022/08/02 03:21:38;;;;;;;2.67;1.65;;;;;;;;;;5041710;28;20031;-82
2022/08/02 03:24:04;;;;;;;1.60;1.50;;;;;;;;;;5045797;28;20041;-82
2022/08/02 03:26:29;;;;;;;2.38;1.40;;;;;;;;;;5021396;28;20055;-82
2022/08/02 03:28:55;;;;;;;1.70;1.50;;;;;;;;;;5042594;28;20044;-80
2022/08/02 03:31:20;;;;;;;5.38;1.65;;;;;;;;;;5056970;28;20029;-80
2022/08/02 03:33:45;;;;;;;1.65;1.55;;;;;;;;;;5039245;28;20091;-81
2022/08/02 03:36:15;;;;;;;3.05;1.45;;;;;;;;;;5033094;28;20029;-81
2022/08/02 03:38:42;;;;;;;1.98;1.73;;;;;;;;;;5040679;28;20021;-82
2022/08/02 03:41:09;;;;;;;1.52;1.42;;;;;;;;;;5039779;28;20033;-81
2022/08/02 03:43:36;;;;;;;2.60;1.60;;;;;;;;;;5044405;28;20087;-82
2022/08/02 03:46:03;;;;;;;3.47;2.17;;;;;;;;;;5037798;28;20086;-81
2022/08/02 03:48:29;;;;;;;3.22;1.48;;;;;;;;;;5043172;28;20025;-82
2022/08/02 03:50:55;;;;;;;2.45;1.70;;;;;;;;;;5019792;28;20080;-82
2022/08/02 03:53:21;;;;;;;2.50;1.98;;;;;;;;;;5040474;28;20063;-82
2022/08/02 03:55:47;;;;;;;6.10;1.80;;;;;;;;;;5036039;28;20017;-82
2022/08/02 03:58:20;;;;;;;4.60;1.90;;;;;;;;;;5036946;28;20029;-82
2022/08/02 04:00:46;;;;;;;1.88;1.67;;;;;;;;;;5029134;28;20049;-80
2022/08/02 04:03:13;;;;;;;3.67;1.88;;;;;;;;;;5050078;28;20030;-78
2022/08/02 04:05:38;;;;;;;3.85;1.70;;;;;;;;;;5049456;28;20036;-80
2022/08/02 04:08:04;;;;;;;2.45;1.80;;;;;;;;;;5042685;28;20025;-81
2022/08/02 04:10:29;;;;;;;1.75;1.58;;;;;;;;;;5046447;28;20817;-81
2022/08/02 04:12:56;;;;;;;1.80;1.70;;;;;;;;;;5055524;28;20076;-79
2022/08/02 04:15:22;;;;;;;4.00;2.00;;;;;;;;;;5037233;28;20056;-80
2022/08/02 04:17:57;;;;;;;4.72;1.90;;;;;;;;;;5040741;28;20013;-81
2022/08/02 04:20:28;;;;;;;2.38;1.90;;;;;;;;;;5055004;28;20024;-82
2022/08/02 04:23:03;;;;;;;3.08;1.73;;;;;;;;;;5012082;28;20066;-81
2022/08/02 04:25:31;;;;;;;2.25;1.70;;;;;;;;;;5052790;28;20032;-80
2022/08/02 04:27:57;;;;;;;2.20;1.60;;;;;;;;;;5038734;28;20018;-80
2022/08/02 04:30:23;;;;;;;2.20;2.00;;;;;;;;;;5056357;28;20041;-80
2022/08/02 04:32:49;;;;;;;3.25;1.52;;;;;;;;;;5069866;28;20117;-81
2022/08/02 04:35:15;;;;;;;2.10;1.83;;;;;;;;;;5061293;28;20535;-81
2022/08/02 04:37:41;;;;;;;2.30;1.80;;;;;;;;;;5060564;28;20040;-79
2022/08/02 04:40:11;;;;;;;4.35;1.92;;;;;;;;;;5038404;28;20042;-79
2022/08/02 04:42:37;;;;;;;4.63;1.50;;;;;;;;;;5057557;28;20082;-80
2022/08/02 04:45:04;;;;;;;2.90;1.50;;;;;;;;;;5058356;28;20037;-79
2022/08/02 04:47:29;;;;;;;2.22;1.70;;;;;;;;;;5049368;28;20416;-81
2022/08/02 04:49:54;;;;;;;2.15;1.65;;;;;;;;;;5027777;28;20029;-82
2022/08/02 04:52:20;;;;;;;2.78;1.77;;;;;;;;;;5036986;28;20025;-83
2022/08/02 04:54:45;;;;;;;3.15;1.75;;;;;;;;;;5036425;28;20108;-81
2022/08/02 04:59:55;;;;;;;3.95;1.65;;;;;;;;;;5038322;28;20143;-82
2022/08/02 05:02:21;;;;;;;2.28;1.58;;;;;;;;;;5048558;28;20076;-81
2022/08/02 05:04:46;;;;;;;3.25;1.83;;;;;;;;;;5009719;28;20021;-80
2022/08/02 05:07:11;;;;;;;3.25;2.10;;;;;;;;;;5012844;28;20036;-82
2022/08/02 05:09:37;;;;;;;3.10;2.00;;;;;;;;;;5036828;28;20125;-82
2022/08/02 05:12:02;;;;;;;2.05;1.85;;;;;;;;;;5038928;28;20022;-81
2022/08/02 05:14:28;;;;;;;1.98;1.77;;;;;;;;;;5040900;28;20041;-83
2022/08/02 05:16:53;;;;;;;5.68;1.60;;;;;;;;;;5033379;28;20047;-82
2022/08/02 05:19:18;;;;;;;3.22;1.90;;;;;;;;;;5035306;28;20468;-82
2022/08/02 05:21:43;;;;;;;3.58;1.70;;;;;;;;;;5041171;28;20029;-82
2022/08/02 05:24:09;;;;;;;2.70;1.80;;;;;;;;;;5039664;28;20026;-81
2022/08/02 05:26:34;;;;;;;4.05;1.60;;;;;;;;;;5029479;28;20048;-82
2022/08/02 05:29:00;;;;;;;2.60;1.50;;;;;;;;;;5043760;28;20021;-82
2022/08/02 05:31:25;;;;;;;3.83;2.22;;;;;;;;;;5036033;28;20545;-79
2022/08/02 05:33:51;;;;;;;3.58;1.92;;;;;;;;;;5028019;28;20026;-82
2022/08/02 05:36:16;;;;;;;2.50;2.20;;;;;;;;;;5038767;28;20029;-81
2022/08/02 05:38:41;;;;;;;3.05;1.88;;;;;;;;;;5031319;28;20075;-83
2022/08/02 05:41:07;;;;;;;2.08;1.80;;;;;;;;;;5042313;28;20026;-82
2022/08/02 05:43:32;;;;;;;3.42;1.90;;;;;;;;;;5041332;28;20495;-81
2022/08/02 05:45:58;;;;;;;2.42;1.75;;;;;;;;;;5048496;28;20022;-82
2022/08/02 05:48:24;;;;;;;4.95;2.05;;;;;;;;;;5038317;28;20091;-82
2022/08/02 05:50:54;;;;;;;5.88;1.92;;;;;;;;;;5045942;28;20021;-82
2022/08/02 05:53:48;;;;;;;3.75;2.05;;;;;;;;;;5040133;28;20029;-83
2022/08/02 05:56:33;;;;;;;2.78;2.03;;;;;;;;;;5023405;28;20107;-82
2022/08/02 05:59:10;;;;;;;2.90;1.73;;;;;;;;;;5043229;28;20093;-84
2022/08/02 06:01:39;;;;;;;3.17;1.77;;;;;;;;;;5044408;28;20496;-82
2022/08/02 06:04:09;;;;;;;2.45;1.60;;;;;;;;;;5055239;28;20089;-83
2022/08/02 06:06:36;;;;;;;2.63;1.92;;;;;;;;;;5033149;28;20033;-82
2022/08/02 06:09:13;;;;;;;6.53;1.88;;;;;;;;;;5021065;28;20026;-83
2022/08/02 06:11:44;;;;;;;2.20;1.80;;;;;;;;;;5043082;28;20029;-82
2022/08/02 06:14:11;;;;;;;2.40;1.85;;;;;;;;;;5046733;28;20534;-81
2022/08/02 06:16:37;;;;;;;5.82;1.88;;;;;;;;;;5044764;28;20083;-82
2022/08/02 06:19:04;;;;;;;3.58;1.70;;;;;;;;;;5030889;28;20021;-81
2022/08/02 06:21:30;;;;;;;6.25;1.70;;;;;;;;;;5044026;28;20022;-81
2022/08/02 06:23:57;;;;;;;2.90;2.03;;;;;;;;;;5040897;28;20388;-81
2022/08/02 06:26:23;;;;;;;1.63;1.52;;;;;;;;;;5040360;28;20029;-82
2022/08/02 06:28:51;;;;;;;6.45;2.13;;;;;;;;;;5053076;28;20025;-81
2022/08/02 06:31:18;;;;;;;2.67;1.90;;;;;;;;;;5036665;28;20037;-81
2022/08/02 06:33:43;;;;;;;7.40;2.05;;;;;;;;;;5029265;28;20068;-82
2022/08/02 06:36:22;;;;;;;5.55;2.42;;;;;;;;;;5036443;28;20171;-82
2022/08/02 06:39:02;;;;;;;3.58;2.10;;;;;;;;;;5050187;28;20032;-82
2022/08/02 06:41:30;;;;;;;4.38;1.88;;;;;;;;;;5045348;28;20028;-82
2022/08/02 06:44:01;;;;;;;4.40;2.00;;;;;;;;;;5048285;28;20025;-82
2022/08/02 06:46:27;;;;;;;3.90;2.22;;;;;;;;;;5056107;28;20025;-83
2022/08/02 06:48:52;;;;;;;11.45;2.25;;;;;;;;;;5039792;28;20390;-82
2022/08/02 06:51:18;;;;;;;7.15;2.28;;;;;;;;;;5035162;28;20026;-80
2022/08/02 06:53:44;;;;;;;8.15;1.88;;;;;;;;;;5035051;28;20075;-83
2022/08/02 06:56:09;;;;;;;5.43;1.95;;;;;;;;;;5044219;28;20060;-83
2022/08/02 06:58:34;;;;;;;4.22;2.20;;;;;;;;;;5040229;28;20044;-84
2022/08/02 07:01:00;;;;;;;11.13;2.22;;;;;;;;;;5043661;28;20029;-84
2022/08/02 07:03:26;;;;;;;2.53;1.80;;;;;;;;;;5042812;28;20041;-80
2022/08/02 07:05:52;;;;;;;3.80;2.38;;;;;;;;;;5040976;28;20021;-84
2022/08/02 07:08:18;;;;;;;3.20;2.15;;;;;;;;;;5022528;28;20031;-84
2022/08/02 07:10:44;;;;;;;4.75;2.17;;;;;;;;;;5045226;28;20088;-84
2022/08/02 07:13:09;;;;;;;4.00;2.30;;;;;;;;;;5042593;28;20056;-84
2022/08/02 07:15:37;;;;;;;3.83;2.30;;;;;;;;;;5045923;28;20364;-84
2022/08/02 07:18:03;;;;;;;5.03;2.42;;;;;;;;;;5047278;28;20032;-84
2022/08/02 07:20:28;;;;;;;2.70;2.50;;;;;;;;;;5047317;28;20025;-82
2022/08/02 07:22:53;;;;;;;4.85;2.35;;;;;;;;;;5046640;28;20096;-82
2022/08/02 07:25:19;;;;;;;6.22;2.50;;;;;;;;;;5056389;28;20048;-84
2022/08/02 07:27:44;;;;;;;2.40;2.20;;;;;;;;;;5040796;28;20033;-84
2022/08/02 07:30:10;;;;;;;4.82;2.10;;;;;;;;;;5032532;28;20375;-83
2022/08/02 07:32:36;;;;;;;8.25;2.22;;;;;;;;;;5027551;28;20391;-84
2022/08/02 07:35:01;;;;;;;4.40;2.38;;;;;;;;;;5041263;28;20025;-84
2022/08/02 07:37:31;;;;;;;3.92;2.47;;;;;;;;;;5029343;28;20021;-83
2022/08/02 07:39:57;;;;;;;2.97;2.20;;;;;;;;;;5040181;28;20033;-83
2022/08/02 07:42:23;;;;;;;4.20;2.50;;;;;;;;;;5041269;28;20418;-84
2022/08/02 07:44:49;;;;;;;5.40;2.50;;;;;;;;;;5037445;28;20091;-82
2022/08/02 07:47:15;;;;;;;2.70;2.40;;;;;;;;;;5021449;28;20083;-83
2022/08/02 07:52:19;;;;;;;4.07;2.83;;;;;;;;;;5077618;28;20055;-82
2022/08/02 07:54:45;;;;;;;4.15;2.60;;;;;;;;;;5061213;28;20449;-83
2022/08/02 07:57:11;;;;;;;3.55;2.75;;;;;;;;;;5065700;28;20047;-83
2022/08/02 07:59:36;;;;;;;6.72;2.83;;;;;;;;;;5068565;28;20020;-81
2022/08/02 08:02:02;;;;;;;4.55;2.90;;;;;;;;;;5059217;28;20044;-81
2022/08/02 08:04:27;;;;;;;5.00;3.33;;;;;;;;;;5071342;28;20019;-79
2022/08/02 08:06:53;;;;;;;2.92;2.65;;;;;;;;;;5069144;28;20044;-80
2022/08/02 08:09:19;;;;;;;3.45;2.65;;;;;;;;;;5061100;28;20034;-83
2022/08/02 08:11:44;;;;;;;7.68;2.80;;;;;;;;;;5065519;28;20048;-82
2022/08/02 08:14:10;;;;;;;9.15;3.40;;;;;;;;;;5068356;28;20024;-84
2022/08/02 08:16:36;;;;;;;4.90;2.63;;;;;;;;;;5072859;28;20035;-84
2022/08/02 08:19:02;;;;;;;8.50;3.67;;;;;;;;;;5054375;28;20016;-84
2022/08/02 08:21:30;;;;;;;3.05;2.55;;;;;;;;;;5086264;28;20170;-83
2022/08/02 08:23:56;;;;;;;4.43;2.70;;;;;;;;;;5069515;28;20107;-84
2022/08/02 08:26:22;;;;;;;9.93;2.80;;;;;;;;;;5062208;28;20113;-84
2022/08/02 08:28:47;;;;;;;3.63;2.80;;;;;;;;;;5077789;28;20048;-82
2022/08/02 08:31:13;;;;;;;3.10;2.80;;;;;;;;;;5083539;28;20044;-81
2022/08/02 08:33:38;;;;;;;2.90;2.58;;;;;;;;;;5089657;28;20035;-82
2022/08/02 08:36:04;;;;;;;4.72;2.58;;;;;;;;;;5065738;28;20090;-83
2022/08/02 08:38:29;;;;;;;6.75;2.60;;;;;;;;;;5059243;28;20021;-82
2022/08/02 08:40:55;;;;;;;6.38;2.95;;;;;;;;;;5062296;28;20020;-84
2022/08/02 08:43:20;;;;;;;10.05;2.60;;;;;;;;;;5081672;28;20028;-84
2022/08/02 08:45:47;;;;;;;4.63;3.40;;;;;;;;;;5081170;28;20032;-84
2022/08/02 08:48:14;;;;;;;4.55;2.63;;;;;;;;;;5085252;28;20027;-82
2022/08/02 08:50:55;;;;;;;4.15;2.67;;;;;;;;;;5065895;28;20028;-84
2022/08/02 08:53:20;;;;;;;3.38;2.53;;;;;;;;;;5084630;28;20242;-84
2022/08/02 08:55:47;;;;;;;3.42;2.60;;;;;;;;;;5062640;28;20024;-84
2022/08/02 08:58:13;;;;;;;2.85;2.53;;;;;;;;;;5083168;28;20062;-81
2022/08/02 09:00:40;;;;;;;3.50;2.70;;;;;;;;;;5084506;28;20036;-84
2022/08/02 09:03:07;;;;;;;4.13;2.70;;;;;;;;;;5069186;28;20024;-84
2022/08/02 09:05:40;;;;;;;6.60;2.90;;;;;;;;;;5075788;28;20468;-84
2022/08/02 09:08:06;;;;;;;6.43;2.65;;;;;;;;;;5076196;28;20497;-83
2022/08/02 09:10:33;;;;;;;3.97;2.92;;;;;;;;;;5055175;28;20021;-81
2022/08/02 09:13:08;;;;;;;4.80;2.50;;;;;;;;;;5052294;28;20563;-84
2022/08/02 09:15:34;;;;;;;4.53;2.40;;;;;;;;;;5049012;28;20032;-83
2022/08/02 09:17:59;;;;;;;2.92;2.65;;;;;;;;;;5071994;28;20040;-85
2022/08/02 09:20:24;;;;;;;2.55;2.35;;;;;;;;;;5061760;28;20115;-80
2022/08/02 09:23:10;;;;;;;4.65;2.85;;;;;;;;;;5075307;28;20387;-81
2022/08/02 09:25:36;;;;;;;2.60;2.33;;;;;;;;;;5059950;28;20424;-85
2022/08/02 09:28:03;;;;;;;6.10;2.90;;;;;;;;;;5076929;28;20538;-80
2022/08/02 09:30:29;;;;;;;3.92;2.40;;;;;;;;;;5074697;28;20020;-81
2022/08/02 09:32:55;;;;;;;2.55;2.33;;;;;;;;;;5059947;28;20032;-86
2022/08/02 09:35:36;;;;;;;4.10;2.72;;;;;;;;;;5076896;28;20032;-83
2022/08/02 09:38:11;;;;;;;2.95;2.20;;;;;;;;;;5083641;28;20040;-84
2022/08/02 09:40:38;;;;;;;3.38;2.40;;;;;;;;;;5079501;28;20028;-83
2022/08/02 09:43:05;;;;;;;3.72;2.70;;;;;;;;;;5077062;28;20032;-85
2022/08/02 09:45:35;;;;;;;2.28;2.08;;;;;;;;;;5069185;28;20552;-84
2022/08/02 09:48:07;;;;;;;2.75;2.53;;;;;;;;;;5060682;28;20017;-84
2022/08/02 09:50:37;;;;;;;5.25;2.88;;;;;;;;;;5085651;28;20024;-86
2022/08/02 09:53:03;;;;;;;4.38;2.70;;;;;;;;;;5100588;28;20085;-86
2022/08/02 09:55:29;;;;;;;4.18;2.33;;;;;;;;;;5118425;28;20028;-80
2022/08/02 09:57:54;;;;;;;2.63;2.40;;;;;;;;;;5119395;28;20114;-82
2022/08/02 10:00:20;;;;;;;2.58;2.13;;;;;;;;;;5110640;28;20039;-82
2022/08/02 10:03:18;;;;;;;3.88;2.55;;;;;;;;;;5092255;28;20032;-83
2022/08/02 10:05:54;;;;;;;3.55;2.30;;;;;;;;;;5035713;28;20111;-84
2022/08/02 10:08:20;;;;;;;4.75;2.80;;;;;;;;;;5078631;28;20035;-84
2022/08/02 10:10:46;;;;;;;3.35;2.70;;;;;;;;;;5069881;28;20374;-83
2022/08/02 10:13:13;;;;;;;3.15;2.53;;;;;;;;;;5073495;28;20029;-83
2022/08/02 10:15:39;;;;;;;4.22;2.65;;;;;;;;;;5060243;28;20060;-85
2022/08/02 10:18:06;;;;;;;4.13;2.60;;;;;;;;;;5081129;28;20024;-83
2022/08/02 10:20:39;;;;;;;4.40;2.47;;;;;;;;;;5064239;28;20032;-83
2022/08/02 10:23:07;;;;;;;2.40;2.20;;;;;;;;;;5065255;28;20054;-84
2022/08/02 10:25:36;;;;;;;3.03;2.20;;;;;;;;;;5066212;28;20028;-84
2022/08/02 10:28:02;;;;;;;2.80;2.60;;;;;;;;;;5059404;28;20020;-85
2022/08/02 10:30:28;;;;;;;3.70;2.63;;;;;;;;;;5102730;28;20023;-82
2022/08/02 10:32:56;;;;;;;4.45;2.47;;;;;;;;;;5079802;28;20024;-84
2022/08/02 10:35:23;;;;;;;2.60;2.40;;;;;;;;;;5082453;28;20028;-84
2022/08/02 10:37:53;;;;;;;3.25;2.65;;;;;;;;;;5080944;28;20020;-84
2022/08/02 10:40:22;;;;;;;5.20;2.47;;;;;;;;;;5074333;28;20028;-86
2022/08/02 10:42:58;;;;;;;3.30;2.47;;;;;;;;;;5057284;28;20136;-84
2022/08/02 10:45:23;;;;;;;2.75;2.15;;;;;;;;;;5067134;28;20039;-84
2022/08/02 10:48:07;;;;;;;4.43;2.45;;;;;;;;;;5072835;28;20028;-84
2022/08/02 10:50:44;;;;;;;2.58;2.38;;;;;;;;;;5074188;28;20028;-86
2022/08/02 10:53:19;;;;;;;3.17;2.40;;;;;;;;;;5064539;28;20144;-81
2022/08/02 10:55:45;;;;;;;3.20;2.38;;;;;;;;;;5072409;28;20032;-82
2022/08/02 10:58:18;;;;;;;5.43;2.50;;;;;;;;;;5051671;28;20021;-83
2022/08/02 11:00:44;;;;;;;3.00;2.33;;;;;;;;;;5069994;28;20091;-83
2022/08/02 11:03:28;;;;;;;4.70;2.33;;;;;;;;;;5055280;28;20056;-83
2022/08/02 11:06:05;;;;;;;2.60;2.40;;;;;;;;;;5044269;28;20039;-84
2022/08/02 11:08:31;;;;;;;2.83;2.40;;;;;;;;;;5048684;28;20028;-86
2022/08/02 11:11:14;;;;;;;6.25;2.65;;;;;;;;;;5087113;28;20016;-85
2022/08/02 11:14:02;;;;;;;2.70;2.33;;;;;;;;;;5062304;28;20111;-84
2022/08/02 11:17:04;;;;;;;2.67;2.20;;;;;;;;;;5072883;28;20032;-83
2022/08/02 11:19:30;;;;;;;4.47;2.42;;;;;;;;;;5042008;28;20064;-85
2022/08/02 11:22:03;;;;;;;4.60;2.53;;;;;;;;;;5082131;28;20024;-84
2022/08/02 11:24:31;;;;;;;10.93;2.78;;;;;;;;;;5062405;28;20024;-84
2022/08/02 11:26:59;;;;;;;3.60;2.25;;;;;;;;;;5055136;28;20032;-83
2022/08/02 11:29:31;;;;;;;2.25;2.05;;;;;;;;;;5043376;28;20029;-84
2022/08/02 11:31:57;;;;;;;3.70;2.70;;;;;;;;;;5060166;28;20033;-85
2022/08/02 11:34:24;;;;;;;3.28;2.25;;;;;;;;;;5062648;28;20066;-83
2022/08/02 11:36:50;;;;;;;4.97;2.63;;;;;;;;;;5044217;28;20042;-83
2022/08/02 11:39:18;;;;;;;2.70;2.20;;;;;;;;;;5070356;28;20021;-85
2022/08/02 11:41:50;;;;;;;3.10;2.15;;;;;;;;;;5061635;28;20494;-83
2022/08/02 11:44:16;;;;;;;2.55;2.13;;;;;;;;;;5064858;28;20028;-83
2022/08/02 11:46:42;;;;;;;2.80;2.42;;;;;;;;;;5053760;28;20029;-85
2022/08/02 11:49:15;;;;;;;2.47;1.95;;;;;;;;;;5089172;28;20031;-84
2022/08/02 11:51:58;;;;;;;6.07;2.10;;;;;;;;;;5062944;28;20123;-83
2022/08/02 11:54:32;;;;;;;2.45;2.25;;;;;;;;;;5046861;28;20039;-85
2022/08/02 11:57:16;;;;;;;1.88;1.70;;;;;;;;;;5068271;28;20032;-85
2022/08/02 11:59:43;;;;;;;3.60;1.92;;;;;;;;;;5055003;28;20033;-85
2022/08/02 12:02:09;;;;;;;3.08;1.95;;;;;;;;;;5067860;28;20385;-84
2022/08/02 12:04:35;;;;;;;2.58;1.73;;;;;;;;;;5075040;28;20038;-85
2022/08/02 12:07:02;;;;;;;3.22;1.80;;;;;;;;;;5089204;28;20656;-84
2022/08/02 12:09:29;;;;;;;2.47;1.90;;;;;;;;;;5078880;28;20092;-85
2022/08/02 12:11:55;;;;;;;1.77;1.67;;;;;;;;;;5069026;28;20034;-85
2022/08/02 12:14:22;;;;;;;1.60;1.50;;;;;;;;;;5080395;28;20116;-85
2022/08/02 12:19:33;;;;;;;1.90;1.80;;;;;;;;;;5053201;28;20108;-84
2022/08/02 12:22:12;;;;;;;1.50;1.40;;;;;;;;;;5041167;28;20024;-84
2022/08/02 12:24:40;;;;;;;1.80;1.70;;;;;;;;;;5045322;28;20021;-87
2022/08/02 12:27:06;;;;;;;2.15;1.90;;;;;;;;;;5046889;28;20048;-84
2022/08/02 12:29:39;;;;;;;1.75;1.65;;;;;;;;;;5055005;28;20025;-84
2022/08/02 12:32:05;;;;;;;2.38;1.85;;;;;;;;;;5054580;28;20032;-86
2022/08/02 12:34:32;;;;;;;2.80;1.90;;;;;;;;;;5037083;28;20138;-84
2022/08/02 12:37:09;;;;;;;2.28;1.55;;;;;;;;;;5050915;28;20024;-83
2022/08/02 12:39:37;;;;;;;2.53;1.80;;;;;;;;;;5058660;28;20035;-84
2022/08/02 12:42:04;;;;;;;2.53;1.80;;;;;;;;;;5079389;28;20028;-84
2022/08/02 12:44:30;;;;;;;1.85;1.60;;;;;;;;;;5053580;28;20028;-84
2022/08/02 12:47:00;;;;;;;4.20;1.90;;;;;;;;;;5060954;28;20028;-84
2022/08/02 12:49:26;;;;;;;3.00;1.75;;;;;;;;;;5056939;28;20084;-82
2022/08/02 12:51:51;;;;;;;2.78;1.55;;;;;;;;;;5053637;28;20465;-84
2022/08/02 12:54:26;;;;;;;1.65;1.50;;;;;;;;;;5066075;28;20036;-82
2022/08/02 12:56:52;;;;;;;3.67;1.77;;;;;;;;;;5060744;28;20032;-83
2022/08/02 12:59:34;;;;;;;1.80;1.70;;;;;;;;;;5080680;28;20022;-85
2022/08/02 13:02:05;;;;;;;2.50;1.60;;;;;;;;;;5061128;28;20053;-84
2022/08/02 13:04:30;;;;;;;4.88;1.58;;;;;;;;;;5076452;28;20020;-84
2022/08/02 13:06:56;;;;;;;1.80;1.67;;;;;;;;;;5061095;28;20077;-85
2022/08/02 13:09:21;;;;;;;2.47;1.85;;;;;;;;;;5081719;28;20028;-84
2022/08/02 13:11:47;;;;;;;2.35;1.70;;;;;;;;;;5069479;28;20107;-84
2022/08/02 13:14:12;;;;;;;1.55;1.45;;;;;;;;;;5070117;28;20036;-83
2022/08/02 13:16:39;;;;;;;3.67;1.67;;;;;;;;;;5073995;28;20115;-84
2022/08/02 13:19:04;;;;;;;1.60;1.50;;;;;;;;;;5065978;28;20474;-84
2022/08/02 13:21:30;;;;;;;1.98;1.60;;;;;;;;;;5069784;28;20025;-84
2022/08/02 13:23:55;;;;;;;1.85;1.73;;;;;;;;;;5051897;28;20025;-83
2022/08/02 13:26:21;;;;;;;3.08;1.90;;;;;;;;;;5058702;28;20094;-83
2022/08/02 13:28:46;;;;;;;1.98;1.60;;;;;;;;;;5082022;28;20037;-84
2022/08/02 13:31:11;;;;;;;2.03;1.63;;;;;;;;;;5087122;28;20059;-84
2022/08/02 13:33:37;;;;;;;1.83;1.73;;;;;;;;;;5062424;28;20459;-84
2022/08/02 13:36:03;;;;;;;2.10;1.90;;;;;;;;;;5051829;28;20078;-85
2022/08/02 13:38:28;;;;;;;1.88;1.70;;;;;;;;;;5064824;28;20119;-84
2022/08/02 13:41:09;;;;;;;1.63;1.52;;;;;;;;;;5091513;28;20077;-82
2022/08/02 13:43:38;;;;;;;3.78;1.52;;;;;;;;;;5080747;28;20021;-84
2022/08/02 13:46:06;;;;;;;1.67;1.58;;;;;;;;;;5080525;28;20110;-84
2022/08/02 13:48:32;;;;;;;4.30;1.63;;;;;;;;;;5077978;28;20028;-84
2022/08/02 13:50:58;;;;;;;2.75;1.60;;;;;;;;;;5090815;22;20374;-84
2022/08/02 13:53:24;;;;;;;4.95;1.88;;;;;;;;;;5057703;28;20032;-84
2022/08/02 13:55:49;;;;;;;1.58;1.42;;;;;;;;;;5063925;28;20032;-84
2022/08/02 13:58:15;;;;;;;1.83;1.55;;;;;;;;;;5058095;28;20036;-84
2022/08/02 14:00:40;;;;;;;1.73;1.58;;;;;;;;;;5056208;28;20454;-84
2022/08/02 14:03:07;;;;;;;3.03;1.63;;;;;;;;;;5037719;28;20375;-83
2022/08/02 14:05:36;;;;;;;1.67;1.58;;;;;;;;;;5037467;28;20033;-83
2022/08/02 14:08:02;;;;;;;1.60;1.50;;;;;;;;;;5043974;28;20107;-86
2022/08/02 14:10:27;;;;;;;2.00;1.60;;;;;;;;;;5055283;28;20051;-88
2022/08/02 14:12:52;;;;;;;3.40;1.50;;;;;;;;;;5047653;28;20021;-85
2022/08/02 14:15:18;;;;;;;3.45;1.83;;;;;;;;;;5045522;28;20036;-84
2022/08/02 14:17:43;;;;;;;1.70;1.40;;;;;;;;;;5042761;28;20032;-84
2022/08/02 14:20:10;;;;;;;2.45;1.60;;;;;;;;;;5050606;28;20033;-85
2022/08/02 14:22:35;;;;;;;1.90;1.70;;;;;;;;;;5052483;28;20033;-85
2022/08/02 14:25:01;;;;;;;1.67;1.58;;;;;;;;;;5047343;28;20017;-85
2022/08/02 14:27:26;;;;;;;2.08;1.38;;;;;;;;;;5039402;28;20025;-86
2022/08/02 14:29:52;;;;;;;1.80;1.63;;;;;;;;;;5050689;28;20017;-85
2022/08/02 14:32:17;;;;;;;1.75;1.52;;;;;;;;;;5048978;28;20049;-85
2022/08/02 14:34:43;;;;;;;1.60;1.50;;;;;;;;;;5025604;28;20467;-85
2022/08/02 14:37:09;;;;;;;1.60;1.50;;;;;;;;;;5037971;28;20021;-83
2022/08/02 14:39:34;;;;;;;2.40;1.60;;;;;;;;;;5031161;28;20036;-83
2022/08/02 14:42:00;;;;;;;3.67;1.42;;;;;;;;;;5037106;28;20034;-84
2022/08/02 14:44:25;;;;;;;1.60;1.50;;;;;;;;;;5041889;28;20037;-86
2022/08/02 14:46:50;;;;;;;2.08;1.65;;;;;;;;;;5040375;28;20033;-86
2022/08/02 14:49:16;;;;;;;5.18;2.00;;;;;;;;;;5036914;28;20068;-87
2022/08/02 14:51:41;;;;;;;3.45;1.48;;;;;;;;;;5032049;28;20022;-84
2022/08/02 14:54:08;;;;;;;1.65;1.50;;;;;;;;;;5045072;28;20029;-84
2022/08/02 14:56:33;;;;;;;2.63;2.10;;;;;;;;;;5042454;28;20029;-83